Terminal Aerodrome Forecast
Issued by NWS Twin Cities, MN

Home | Current Version | Previous Version | Text Only | Print | Product List | Glossary Off
Versions: 1 2 3 4 5 6 7 8 9 10 11 12 13 14 15 16 17 18 19 20 21 22 23 24 25 26 27 28 29 30 31

000
FTUS43 KMPX 261300 AAA
TAFMSP
TAF AMD
KMSP 261358Z 2614/2718 02008KT 1SM -SN BR SCT015 OVC025
      TEMPO 2614/2618 1/2SM SN FG BKN015
     FM261900 34011KT 5SM -SN OVC020
     FM270000 31012KT P6SM BKN025
     FM270400 32010KT P6SM SKC=

USA.gov is the U.S. government's official web portal to all federal, state and local government web resources and services.